sensor_id;sensor_type;location;lat;lon;timestamp;pressure;altitude;pressure_sealevel;temperature;humidity
35507;BME280;36461;52.018;21.036;2022-11-24T00:01:24;99668.44;;;0.21;81.85
35507;BME280;36461;52.018;21.036;2022-11-24T00:04:01;99668.42;;;0.23;81.58
35507;BME280;36461;52.018;21.036;2022-11-24T00:06:29;99673.98;;;0.21;81.60
35507;BME280;36461;52.018;21.036;2022-11-24T00:08:57;99671.86;;;0.22;81.72
35507;BME280;36461;52.018;21.036;2022-11-24T00:11:27;99662.48;;;0.21;81.60
35507;BME280;36461;52.018;21.036;2022-11-24T00:13:56;99666.73;;;0.19;81.57
35507;BME280;36461;52.018;21.036;2022-11-24T00:16:29;99667.18;;;0.16;81.72
35507;BME280;36461;52.018;21.036;2022-11-24T00:18:58;99671.84;;;0.19;81.81
35507;BME280;36461;52.018;21.036;2022-11-24T00:21:28;99674.81;;;0.21;81.86
35507;BME280;36461;52.018;21.036;2022-11-24T00:23:56;99674.41;;;0.22;81.87
35507;BME280;36461;52.018;21.036;2022-11-24T00:26:25;99676.51;;;0.25;81.91
35507;BME280;36461;52.018;21.036;2022-11-24T00:28:55;99674.39;;;0.26;81.85
35507;BME280;36461;52.018;21.036;2022-11-24T00:31:29;99676.95;;;0.23;81.71
35507;BME280;36461;52.018;21.036;2022-11-24T00:33:59;99686.71;;;0.27;81.84
35507;BME280;36461;52.018;21.036;2022-11-24T00:36:28;99688.42;;;0.26;81.85
35507;BME280;36461;52.018;21.036;2022-11-24T00:39:02;99682.91;;;0.22;81.59
35507;BME280;36461;52.018;21.036;2022-11-24T00:41:32;99681.65;;;0.18;81.80
35507;BME280;36461;52.018;21.036;2022-11-24T00:44:00;99683.34;;;0.22;82.08
35507;BME280;36461;52.018;21.036;2022-11-24T00:46:27;99679.08;;;0.21;81.90
35507;BME280;36461;52.018;21.036;2022-11-24T00:48:56;99679.94;;;0.16;82.01
35507;BME280;36461;52.018;21.036;2022-11-24T00:51:25;99676.11;;;0.16;81.95
35507;BME280;36461;52.018;21.036;2022-11-24T00:53:55;99676.53;;;0.13;81.96
35507;BME280;36461;52.018;21.036;2022-11-24T00:56:24;99673.54;;;0.13;82.03
35507;BME280;36461;52.018;21.036;2022-11-24T00:58:51;99680.80;;;0.11;82.03
35507;BME280;36461;52.018;21.036;2022-11-24T01:01:19;99678.66;;;0.12;82.00
35507;BME280;36461;52.018;21.036;2022-11-24T01:03:48;99682.06;;;0.14;82.07
35507;BME280;36461;52.018;21.036;2022-11-24T01:06:18;99685.47;;;0.13;81.81
35507;BME280;36461;52.018;21.036;2022-11-24T01:08:46;99684.20;;;0.11;81.94
35507;BME280;36461;52.018;21.036;2022-11-24T01:13:47;99678.25;;;0.12;82.20
35507;BME280;36461;52.018;21.036;2022-11-24T01:16:22;99681.63;;;0.07;82.05
35507;BME280;36461;52.018;21.036;2022-11-24T01:18:51;99672.30;;;0.06;82.43
35507;BME280;36461;52.018;21.036;2022-11-24T01:21:19;99683.34;;;0.05;82.49
35507;BME280;36461;52.018;21.036;2022-11-24T01:23:46;99677.39;;;0.01;83.07
35507;BME280;36461;52.018;21.036;2022-11-24T01:26:15;99674.83;;;0.01;83.46
35507;BME280;36461;52.018;21.036;2022-11-24T01:28:44;99680.80;;;0.03;83.81
35507;BME280;36461;52.018;21.036;2022-11-24T01:31:11;99679.53;;;0.02;83.84
35507;BME280;36461;52.018;21.036;2022-11-24T01:33:38;99685.89;;;-0.02;83.70
35507;BME280;36461;52.018;21.036;2022-11-24T01:36:06;99687.19;;;-0.06;83.97
35507;BME280;36461;52.018;21.036;2022-11-24T01:38:33;99683.78;;;-0.02;84.43
35507;BME280;36461;52.018;21.036;2022-11-24T01:41:06;99681.64;;;0.02;84.41
35507;BME280;36461;52.018;21.036;2022-11-24T01:43:35;99681.64;;;0.02;84.18
35507;BME280;36461;52.018;21.036;2022-11-24T01:48:43;99675.69;;;-0.02;84.42
35507;BME280;36461;52.018;21.036;2022-11-24T01:51:21;99684.20;;;0.02;84.58
35507;BME280;36461;52.018;21.036;2022-11-24T01:53:53;99681.64;;;0.04;84.70
35507;BME280;36461;52.018;21.036;2022-11-24T01:56:21;99678.66;;;0.03;84.57
35507;BME280;36461;52.018;21.036;2022-11-24T01:58:49;99679.95;;;0.07;84.64
35507;BME280;36461;52.018;21.036;2022-11-24T02:01:17;99681.22;;;0.07;84.56
35507;BME280;36461;52.018;21.036;2022-11-24T02:03:46;99682.49;;;0.09;84.65
35507;BME280;36461;52.018;21.036;2022-11-24T02:06:17;99683.36;;;0.11;84.50
35507;BME280;36461;52.018;21.036;2022-11-24T02:08:50;99681.20;;;0.10;84.58
35507;BME280;36461;52.018;21.036;2022-11-24T02:11:18;99687.59;;;0.09;84.27
35507;BME280;36461;52.018;21.036;2022-11-24T02:13:47;99682.92;;;0.10;84.66
35507;BME280;36461;52.018;21.036;2022-11-24T02:16:15;99682.92;;;0.10;84.49
35507;BME280;36461;52.018;21.036;2022-11-24T02:18:42;99684.20;;;0.08;84.50
35507;BME280;36461;52.018;21.036;2022-11-24T02:21:10;99683.34;;;0.08;84.61
35507;BME280;36461;52.018;21.036;2022-11-24T02:24:00;99674.84;;;0.07;84.63
35507;BME280;36461;52.018;21.036;2022-11-24T02:26:41;99676.13;;;0.04;84.62
35507;BME280;36461;52.018;21.036;2022-11-24T02:29:11;99677.80;;;0.05;84.80
35507;BME280;36461;52.018;21.036;2022-11-24T02:31:42;99678.25;;;0.05;84.44
35507;BME280;36461;52.018;21.036;2022-11-24T02:34:13;99669.73;;;0.01;84.59
35507;BME280;36461;52.018;21.036;2022-11-24T02:36:41;99677.41;;;-0.05;84.38
35507;BME280;36461;52.018;21.036;2022-11-24T02:39:10;99667.60;;;-0.04;84.82
35507;BME280;36461;52.018;21.036;2022-11-24T02:41:51;99670.58;;;-0.02;84.71
35507;BME280;36461;52.018;21.036;2022-11-24T02:44:21;99670.17;;;0.01;84.94
35507;BME280;36461;52.018;21.036;2022-11-24T02:47:08;99669.32;;;0.03;85.01
35507;BME280;36461;52.018;21.036;2022-11-24T02:49:35;99665.91;;;0.06;84.95
35507;BME280;36461;52.018;21.036;2022-11-24T02:52:03;99664.20;;;0.06;85.01
35507;BME280;36461;52.018;21.036;2022-11-24T02:54:31;99667.59;;;0.05;85.07
35507;BME280;36461;52.018;21.036;2022-11-24T02:56:59;99671.43;;;0.04;84.82
35507;BME280;36461;52.018;21.036;2022-11-24T02:59:26;99669.33;;;0.00;84.96
35507;BME280;36461;52.018;21.036;2022-11-24T03:01:52;99667.61;;;0.04;85.17
35507;BME280;36461;52.018;21.036;2022-11-24T03:04:19;99671.86;;;0.06;85.02
35507;BME280;36461;52.018;21.036;2022-11-24T03:06:45;99668.03;;;0.05;85.01
35507;BME280;36461;52.018;21.036;2022-11-24T03:09:12;99668.47;;;0.07;85.17
35507;BME280;36461;52.018;21.036;2022-11-24T03:11:39;99673.13;;;0.09;85.39
35507;BME280;36461;52.018;21.036;2022-11-24T03:14:08;99673.99;;;0.10;85.31
35507;BME280;36461;52.018;21.036;2022-11-24T03:16:34;99665.47;;;0.09;85.48
35507;BME280;36461;52.018;21.036;2022-11-24T03:19:01;99663.80;;;0.08;85.48
35507;BME280;36461;52.018;21.036;2022-11-24T03:21:28;99671.45;;;0.08;85.56
35507;BME280;36461;52.018;21.036;2022-11-24T03:23:54;99670.58;;;0.06;85.40
35507;BME280;36461;52.018;21.036;2022-11-24T03:26:21;99672.29;;;0.07;85.56
35507;BME280;36461;52.018;21.036;2022-11-24T03:28:51;99673.14;;;0.05;85.40
35507;BME280;36461;52.018;21.036;2022-11-24T03:31:21;99671.00;;;0.03;85.43
35507;BME280;36461;52.018;21.036;2022-11-24T03:33:48;99673.56;;;0.01;85.50
35507;BME280;36461;52.018;21.036;2022-11-24T03:36:15;99673.16;;;0.00;85.51
35507;BME280;36461;52.018;21.036;2022-11-24T03:38:42;99677.81;;;0.04;85.54
35507;BME280;36461;52.018;21.036;2022-11-24T03:41:09;99672.70;;;0.05;85.66
35507;BME280;36461;52.018;21.036;2022-11-24T03:43:36;99672.70;;;0.05;85.66
35507;BME280;36461;52.018;21.036;2022-11-24T03:46:03;99686.73;;;0.07;85.84
35507;BME280;36461;52.018;21.036;2022-11-24T03:48:29;99689.72;;;0.08;85.81
35507;BME280;36461;52.018;21.036;2022-11-24T03:50:58;99686.31;;;0.10;85.77
35507;BME280;36461;52.018;21.036;2022-11-24T03:53:27;99688.45;;;0.05;85.64
35507;BME280;36461;52.018;21.036;2022-11-24T03:55:56;99683.34;;;0.05;85.74
35507;BME280;36461;52.018;21.036;2022-11-24T03:58:23;99679.52;;;0.06;86.01
35507;BME280;36461;52.018;21.036;2022-11-24T04:00:52;99688.03;;;0.08;85.99
35507;BME280;36461;52.018;21.036;2022-11-24T04:03:19;99688.86;;;0.10;86.06
35507;BME280;36461;52.018;21.036;2022-11-24T04:05:46;99692.71;;;0.06;85.69
35507;BME280;36461;52.018;21.036;2022-11-24T04:08:13;99690.14;;;0.03;85.69
35507;BME280;36461;52.018;21.036;2022-11-24T04:10:40;99684.64;;;0.00;85.74
35507;BME280;36461;52.018;21.036;2022-11-24T04:13:14;99684.20;;;-0.01;85.67
35507;BME280;36461;52.018;21.036;2022-11-24T04:15:41;99687.17;;;-0.03;85.69
35507;BME280;36461;52.018;21.036;2022-11-24T04:18:10;99687.61;;;-0.04;85.46
35507;BME280;36461;52.018;21.036;2022-11-24T04:20:39;99686.73;;;-0.04;85.60
35507;BME280;36461;52.018;21.036;2022-11-24T04:23:06;99688.45;;;-0.03;85.75
35507;BME280;36461;52.018;21.036;2022-11-24T04:25:35;99682.49;;;-0.01;85.70
35507;BME280;36461;52.018;21.036;2022-11-24T04:28:02;99690.58;;;0.02;85.97
35507;BME280;36461;52.018;21.036;2022-11-24T04:30:28;99700.79;;;0.01;85.59
35507;BME280;36461;52.018;21.036;2022-11-24T04:32:55;99701.20;;;-0.03;85.61
35507;BME280;36461;52.018;21.036;2022-11-24T04:35:22;99697.81;;;-0.02;85.77
35507;BME280;36461;52.018;21.036;2022-11-24T04:37:49;99699.95;;;0.00;86.01
35507;BME280;36461;52.018;21.036;2022-11-24T04:40:16;99702.91;;;0.01;86.02
35507;BME280;36461;52.018;21.036;2022-11-24T04:42:52;99700.80;;;-0.01;85.64
35507;BME280;36461;52.018;21.036;2022-11-24T04:45:20;99699.94;;;-0.05;85.53
35507;BME280;36461;52.018;21.036;2022-11-24T04:47:47;99697.39;;;-0.06;85.50
35507;BME280;36461;52.018;21.036;2022-11-24T04:50:14;99705.45;;;-0.08;85.42
35507;BME280;36461;52.018;21.036;2022-11-24T04:52:42;99707.60;;;-0.09;85.29
35507;BME280;36461;52.018;21.036;2022-11-24T04:55:09;99708.88;;;-0.09;85.52
35507;BME280;36461;52.018;21.036;2022-11-24T04:57:36;99707.16;;;-0.09;85.47
35507;BME280;36461;52.018;21.036;2022-11-24T05:00:05;99710.15;;;-0.08;85.50
35507;BME280;36461;52.018;21.036;2022-11-24T05:02:33;99724.61;;;-0.07;85.55
35507;BME280;36461;52.018;21.036;2022-11-24T05:04:59;99722.91;;;-0.06;85.59
35507;BME280;36461;52.018;21.036;2022-11-24T05:07:26;99715.67;;;-0.04;85.55
35507;BME280;36461;52.018;21.036;2022-11-24T05:09:52;99721.62;;;-0.03;85.53
35507;BME280;36461;52.018;21.036;2022-11-24T05:12:38;99716.95;;;-0.05;85.28
35507;BME280;36461;52.018;21.036;2022-11-24T05:15:05;99716.95;;;-0.05;85.48
35507;BME280;36461;52.018;21.036;2022-11-24T05:17:34;99718.23;;;-0.05;85.64
35507;BME280;36461;52.018;21.036;2022-11-24T05:20:04;99724.19;;;-0.09;85.53
35507;BME280;36461;52.018;21.036;2022-11-24T05:22:31;99718.64;;;-0.07;85.95
35507;BME280;36461;52.018;21.036;2022-11-24T05:24:58;99717.37;;;-0.09;85.86
35507;BME280;36461;52.018;21.036;2022-11-24T05:27:25;99725.02;;;-0.09;85.84
35507;BME280;36461;52.018;21.036;2022-11-24T05:29:52;99726.30;;;-0.07;86.18
35507;BME280;36461;52.018;21.036;2022-11-24T05:32:20;99728.84;;;-0.07;86.29
35507;BME280;36461;52.018;21.036;2022-11-24T05:34:46;99739.92;;;-0.05;86.17
35507;BME280;36461;52.018;21.036;2022-11-24T05:37:13;99737.34;;;-0.08;86.35
35507;BME280;36461;52.018;21.036;2022-11-24T05:39:40;99732.66;;;-0.04;86.57
35507;BME280;36461;52.018;21.036;2022-11-24T05:42:07;99736.92;;;-0.03;86.62
35507;BME280;36461;52.018;21.036;2022-11-24T05:44:53;99740.32;;;-0.04;86.44
35507;BME280;36461;52.018;21.036;2022-11-24T05:47:20;99739.48;;;-0.03;86.45
35507;BME280;36461;52.018;21.036;2022-11-24T05:49:48;99748.84;;;-0.01;86.54
35507;BME280;36461;52.018;21.036;2022-11-24T05:52:15;99745.02;;;-0.02;86.38
35507;BME280;36461;52.018;21.036;2022-11-24T05:54:42;99740.78;;;0.00;86.54
35507;BME280;36461;52.018;21.036;2022-11-24T05:57:09;99737.35;;;0.01;86.53
35507;BME280;36461;52.018;21.036;2022-11-24T05:59:35;99739.50;;;0.02;86.37
35507;BME280;36461;52.018;21.036;2022-11-24T06:02:01;99751.81;;;0.02;86.27
35507;BME280;36461;52.018;21.036;2022-11-24T06:04:28;99751.81;;;0.02;86.17
35507;BME280;36461;52.018;21.036;2022-11-24T06:06:55;99754.80;;;0.06;86.37
35507;BME280;36461;52.018;21.036;2022-11-24T06:09:21;99750.56;;;0.08;86.09
35507;BME280;36461;52.018;21.036;2022-11-24T06:11:48;99755.66;;;0.08;86.01
35507;BME280;36461;52.018;21.036;2022-11-24T06:14:14;99745.86;;;0.09;85.95
35507;BME280;36461;52.018;21.036;2022-11-24T06:16:41;99750.11;;;0.12;86.03
35507;BME280;36461;52.018;21.036;2022-11-24T06:19:09;99753.53;;;0.12;86.10
35507;BME280;36461;52.018;21.036;2022-11-24T06:21:36;99759.05;;;0.10;85.96
35507;BME280;36461;52.018;21.036;2022-11-24T06:24:03;99764.14;;;0.13;86.25
35507;BME280;36461;52.018;21.036;2022-11-24T06:26:30;99763.31;;;0.11;85.91
35507;BME280;36461;52.018;21.036;2022-11-24T06:28:56;99762.46;;;0.03;85.91
35507;BME280;36461;52.018;21.036;2022-11-24T06:31:23;99765.01;;;0.05;86.18
35507;BME280;36461;52.018;21.036;2022-11-24T06:33:49;99773.94;;;0.06;86.34
35507;BME280;36461;52.018;21.036;2022-11-24T06:36:16;99776.08;;;0.08;86.38
35507;BME280;36461;52.018;21.036;2022-11-24T06:38:42;99774.80;;;0.11;86.51
35507;BME280;36461;52.018;21.036;2022-11-24T06:41:11;99776.50;;;0.12;86.36
35507;BME280;36461;52.018;21.036;2022-11-24T06:43:39;99770.11;;;0.08;86.11
35507;BME280;36461;52.018;21.036;2022-11-24T06:46:08;99774.80;;;0.10;86.20
35507;BME280;36461;52.018;21.036;2022-11-24T06:48:36;99767.97;;;0.13;86.21
35507;BME280;36461;52.018;21.036;2022-11-24T06:51:09;99766.30;;;0.11;85.89
35507;BME280;36461;52.018;21.036;2022-11-24T06:53:39;99772.25;;;0.08;85.99
35507;BME280;36461;52.018;21.036;2022-11-24T06:56:08;99776.48;;;0.08;86.02
35507;BME280;36461;52.018;21.036;2022-11-24T06:58:40;99772.66;;;0.09;86.09
35507;BME280;36461;52.018;21.036;2022-11-24T07:01:08;99771.41;;;0.11;86.21
35507;BME280;36461;52.018;21.036;2022-11-24T07:03:35;99775.23;;;0.12;86.15
35507;BME280;36461;52.018;21.036;2022-11-24T07:06:01;99768.84;;;0.12;86.02
35507;BME280;36461;52.018;21.036;2022-11-24T07:08:28;99771.80;;;0.13;85.91
35507;BME280;36461;52.018;21.036;2022-11-24T07:10:54;99776.50;;;0.12;86.07
35507;BME280;36461;52.018;21.036;2022-11-24T07:13:21;99775.23;;;0.12;86.18
35507;BME280;36461;52.018;21.036;2022-11-24T07:15:47;99776.50;;;0.14;85.92
35507;BME280;36461;52.018;21.036;2022-11-24T07:18:13;99778.63;;;0.11;85.93
35507;BME280;36461;52.018;21.036;2022-11-24T07:20:40;99781.17;;;0.13;85.97
35507;BME280;36461;52.018;21.036;2022-11-24T07:23:08;99779.48;;;0.16;86.24
35507;BME280;36461;52.018;21.036;2022-11-24T07:25:35;99789.27;;;0.25;86.46
35507;BME280;36461;52.018;21.036;2022-11-24T07:28:01;99783.74;;;0.28;86.29
35507;BME280;36461;52.018;21.036;2022-11-24T07:30:28;99782.03;;;0.26;85.79
35507;BME280;36461;52.018;21.036;2022-11-24T07:32:59;99790.11;;;0.24;85.64
35507;BME280;36461;52.018;21.036;2022-11-24T07:35:28;99789.70;;;0.26;85.70
35507;BME280;36461;52.018;21.036;2022-11-24T07:37:56;99796.91;;;0.28;85.78
35507;BME280;36461;52.018;21.036;2022-11-24T07:40:24;99790.95;;;0.32;85.61
35507;BME280;36461;52.018;21.036;2022-11-24T07:42:52;99791.81;;;0.37;85.48
35507;BME280;36461;52.018;21.036;2022-11-24T07:45:19;99790.55;;;0.42;85.72
35507;BME280;36461;52.018;21.036;2022-11-24T07:47:46;99790.11;;;0.53;85.65
35507;BME280;36461;52.018;21.036;2022-11-24T07:50:13;99792.66;;;0.61;85.52
35507;BME280;36461;52.018;21.036;2022-11-24T07:52:39;99790.11;;;0.61;85.13
35507;BME280;36461;52.018;21.036;2022-11-24T07:55:06;99789.25;;;0.65;85.01
35507;BME280;36461;52.018;21.036;2022-11-24T07:57:34;99793.08;;;0.65;84.94
35507;BME280;36461;52.018;21.036;2022-11-24T08:00:01;99799.05;;;0.69;85.05
35507;BME280;36461;52.018;21.036;2022-11-24T08:02:30;99801.13;;;0.74;84.99
35507;BME280;36461;52.018;21.036;2022-11-24T08:04:58;99807.53;;;0.78;84.83
35507;BME280;36461;52.018;21.036;2022-11-24T08:07:24;99810.50;;;0.82;84.96
35507;BME280;36461;52.018;21.036;2022-11-24T08:09:51;99812.20;;;0.85;84.83
35507;BME280;36461;52.018;21.036;2022-11-24T08:12:18;99813.05;;;0.90;84.69
35507;BME280;36461;52.018;21.036;2022-11-24T08:14:48;99811.36;;;0.88;84.55
35507;BME280;36461;52.018;21.036;2022-11-24T08:17:16;99812.17;;;0.91;84.62
35507;BME280;36461;52.018;21.036;2022-11-24T08:19:43;99809.63;;;0.91;84.39
35507;BME280;36461;52.018;21.036;2022-11-24T08:22:10;99813.05;;;0.86;84.08
35507;BME280;36461;52.018;21.036;2022-11-24T08:24:37;99816.04;;;0.85;83.98
35507;BME280;36461;52.018;21.036;2022-11-24T08:27:05;99809.23;;;0.76;83.92
35507;BME280;36461;52.018;21.036;2022-11-24T08:29:31;99811.80;;;0.79;84.26
35507;BME280;36461;52.018;21.036;2022-11-24T08:31:57;99815.60;;;0.86;84.51
35507;BME280;36461;52.018;21.036;2022-11-24T08:34:24;99813.47;;;0.90;84.21
35507;BME280;36461;52.018;21.036;2022-11-24T08:36:51;99820.70;;;0.93;84.35
35507;BME280;36461;52.018;21.036;2022-11-24T08:39:17;99815.19;;;0.86;83.92
35507;BME280;36461;52.018;21.036;2022-11-24T08:41:45;99817.30;;;0.90;84.45
35507;BME280;36461;52.018;21.036;2022-11-24T08:44:11;99814.31;;;0.95;84.51
35507;BME280;36461;52.018;21.036;2022-11-24T08:46:40;99814.30;;;1.01;84.60
35507;BME280;36461;52.018;21.036;2022-11-24T08:49:07;99814.70;;;1.02;84.26
35507;BME280;36461;52.018;21.036;2022-11-24T08:51:34;99820.70;;;1.01;84.23
35507;BME280;36461;52.018;21.036;2022-11-24T08:54:02;99821.95;;;1.06;84.59
35507;BME280;36461;52.018;21.036;2022-11-24T08:56:31;99822.35;;;1.11;84.38
35507;BME280;36461;52.018;21.036;2022-11-24T08:58:59;99825.78;;;1.12;84.21
35507;BME280;36461;52.018;21.036;2022-11-24T09:01:26;99833.84;;;1.21;84.26
35507;BME280;36461;52.018;21.036;2022-11-24T09:03:54;99829.58;;;1.24;84.59
35507;BME280;36461;52.018;21.036;2022-11-24T09:06:23;99833.82;;;1.28;84.43
35507;BME280;36461;52.018;21.036;2022-11-24T09:08:53;99833.83;;;1.27;84.06
35507;BME280;36461;52.018;21.036;2022-11-24T09:11:21;99837.67;;;1.25;83.64
35507;BME280;36461;52.018;21.036;2022-11-24T09:13:48;99835.55;;;1.26;84.05
35507;BME280;36461;52.018;21.036;2022-11-24T09:16:20;99842.34;;;1.32;84.04
35507;BME280;36461;52.018;21.036;2022-11-24T09:19:03;99838.94;;;1.33;84.03
35507;BME280;36461;52.018;21.036;2022-11-24T09:21:30;99837.20;;;1.37;84.21
35507;BME280;36461;52.018;21.036;2022-11-24T09:23:58;99841.87;;;1.42;84.20
35507;BME280;36461;52.018;21.036;2022-11-24T09:26:30;99838.42;;;1.49;84.33
35507;BME280;36461;52.018;21.036;2022-11-24T09:28:59;99834.18;;;1.49;84.21
35507;BME280;36461;52.018;21.036;2022-11-24T09:31:30;99833.73;;;1.51;83.99
35507;BME280;36461;52.018;21.036;2022-11-24T09:34:02;99838.42;;;1.49;83.89
35507;BME280;36461;52.018;21.036;2022-11-24T09:36:30;99842.27;;;1.47;83.64
35507;BME280;36461;52.018;21.036;2022-11-24T09:38:57;99849.95;;;1.50;84.01
35507;BME280;36461;52.018;21.036;2022-11-24T09:41:34;99843.09;;;1.56;84.00
35507;BME280;36461;52.018;21.036;2022-11-24T09:47:04;99860.97;;;1.63;83.87
35507;BME280;36461;52.018;21.036;2022-11-24T09:49:41;99852.06;;;1.57;83.68
35507;BME280;36461;52.018;21.036;2022-11-24T09:52:17;99851.61;;;1.59;84.31
35507;BME280;36461;52.018;21.036;2022-11-24T09:54:54;99858.41;;;1.63;84.29
35507;BME280;36461;52.018;21.036;2022-11-24T09:57:24;99855.89;;;1.59;83.98
35507;BME280;36461;52.018;21.036;2022-11-24T09:59:54;99854.19;;;1.51;83.77
35507;BME280;36461;52.018;21.036;2022-11-24T10:02:23;99861.45;;;1.49;84.08
35507;BME280;36461;52.018;21.036;2022-11-24T10:04:50;99859.76;;;1.45;83.96
35507;BME280;36461;52.018;21.036;2022-11-24T10:07:27;99858.48;;;1.45;84.33
35507;BME280;36461;52.018;21.036;2022-11-24T10:09:59;99852.52;;;1.50;84.63
35507;BME280;36461;52.018;21.036;2022-11-24T10:15:55;99858.03;;;1.56;84.50
35507;BME280;36461;52.018;21.036;2022-11-24T10:27:05;99857.58;;;1.58;84.38
35507;BME280;36461;52.018;21.036;2022-11-24T10:29:39;99859.30;;;1.53;84.03
35507;BME280;36461;52.018;21.036;2022-11-24T10:32:19;99859.72;;;1.60;84.59
35507;BME280;36461;52.018;21.036;2022-11-24T10:34:45;99863.14;;;1.56;83.67
35507;BME280;36461;52.018;21.036;2022-11-24T10:37:32;99860.14;;;1.58;84.42
35507;BME280;36461;52.018;21.036;2022-11-24T10:42:39;99860.55;;;1.61;84.12
35507;BME280;36461;52.018;21.036;2022-11-24T10:45:17;99862.24;;;1.65;84.31
35507;BME280;36461;52.018;21.036;2022-11-24T10:47:48;99856.25;;;1.69;84.34
35507;BME280;36461;52.018;21.036;2022-11-24T10:50:23;99858.80;;;1.75;84.59
35507;BME280;36461;52.018;21.036;2022-11-24T10:58:34;99868.97;;;1.88;83.94
35507;BME280;36461;52.018;21.036;2022-11-24T11:03:54;99868.16;;;1.79;83.76
35507;BME280;36461;52.018;21.036;2022-11-24T11:06:25;99864.77;;;1.77;83.45
35507;BME280;36461;52.018;21.036;2022-11-24T11:11:38;99864.75;;;1.80;83.70
35507;BME280;36461;52.018;21.036;2022-11-24T11:14:07;99870.70;;;1.81;83.34
35507;BME280;36461;52.018;21.036;2022-11-24T11:19:38;99867.26;;;1.87;83.45
35507;BME280;36461;52.018;21.036;2022-11-24T11:25:06;99864.72;;;1.88;83.35
35507;BME280;36461;52.018;21.036;2022-11-24T11:27:34;99870.65;;;1.92;82.96
35507;BME280;36461;52.018;21.036;2022-11-24T11:32:57;99875.38;;;1.91;82.88
35507;BME280;36461;52.018;21.036;2022-11-24T11:35:27;99878.36;;;1.87;82.31
35507;BME280;36461;52.018;21.036;2022-11-24T11:38:00;99883.06;;;1.84;82.64
35507;BME280;36461;52.018;21.036;2022-11-24T11:40:29;99883.06;;;1.84;82.53
35507;BME280;36461;52.018;21.036;2022-11-24T11:43:03;99886.48;;;1.83;82.42
35507;BME280;36461;52.018;21.036;2022-11-24T11:45:36;99882.66;;;1.80;82.19
35507;BME280;36461;52.018;21.036;2022-11-24T11:48:20;99885.64;;;1.78;82.22
35507;BME280;36461;52.018;21.036;2022-11-24T11:54:08;99899.75;;;1.74;82.47
35507;BME280;36461;52.018;21.036;2022-11-24T11:56:50;99899.32;;;1.73;82.24
35507;BME280;36461;52.018;21.036;2022-11-24T12:03:01;99899.30;;;1.80;82.31
35507;BME280;36461;52.018;21.036;2022-11-24T12:09:27;99895.45;;;1.80;81.88
35507;BME280;36461;52.018;21.036;2022-11-24T12:17:57;99889.08;;;1.77;82.25
35507;BME280;36461;52.018;21.036;2022-11-24T12:32:57;99893.80;;;1.67;82.34
35507;BME280;36461;52.018;21.036;2022-11-24T12:44:09;99892.98;;;1.59;82.74
35507;BME280;36461;52.018;21.036;2022-11-24T12:52:02;99881.41;;;1.73;82.98
35507;BME280;36461;52.018;21.036;2022-11-24T12:54:39;99879.24;;;1.78;82.81
35507;BME280;36461;52.018;21.036;2022-11-24T13:00:03;99884.83;;;1.75;82.51
35507;BME280;36461;52.018;21.036;2022-11-24T13:05:49;99888.26;;;1.71;82.25
35507;BME280;36461;52.018;21.036;2022-11-24T13:08:19;99890.40;;;1.68;82.18
35507;BME280;36461;52.018;21.036;2022-11-24T13:10:46;99887.00;;;1.63;81.95
35507;BME280;36461;52.018;21.036;2022-11-24T13:13:14;99891.27;;;1.53;81.71
35507;BME280;36461;52.018;21.036;2022-11-24T13:18:45;99888.75;;;1.48;81.83
35507;BME280;36461;52.018;21.036;2022-11-24T13:24:30;99887.89;;;1.49;82.07
35507;BME280;36461;52.018;21.036;2022-11-24T13:29:49;99886.58;;;1.56;82.03
35507;BME280;36461;52.018;21.036;2022-11-24T13:35:00;99895.95;;;1.63;82.06
35507;BME280;36461;52.018;21.036;2022-11-24T13:59:01;99897.28;;;1.44;81.66
35507;BME280;36461;52.018;21.036;2022-11-24T14:01:35;99896.00;;;1.44;81.91
35507;BME280;36461;52.018;21.036;2022-11-24T14:04:21;99897.30;;;1.43;81.82
35507;BME280;36461;52.018;21.036;2022-11-24T14:09:42;99906.67;;;1.38;81.50
35507;BME280;36461;52.018;21.036;2022-11-24T14:12:16;99910.52;;;1.36;81.57
35507;BME280;36461;52.018;21.036;2022-11-24T14:14:48;99914.36;;;1.36;81.57
35507;BME280;36461;52.018;21.036;2022-11-24T14:17:27;99912.23;;;1.37;81.67
35507;BME280;36461;52.018;21.036;2022-11-24T14:19:55;99914.38;;;1.33;81.57
35507;BME280;36461;52.018;21.036;2022-11-24T14:22:29;99916.09;;;1.28;81.50
35507;BME280;36461;52.018;21.036;2022-11-24T14:25:28;99918.22;;;1.25;81.53
35507;BME280;36461;52.018;21.036;2022-11-24T14:27:56;99919.92;;;1.22;81.53
35507;BME280;36461;52.018;21.036;2022-11-24T14:30:25;99923.34;;;1.17;81.41
35507;BME280;36461;52.018;21.036;2022-11-24T14:32:54;99925.46;;;1.16;81.58
35507;BME280;36461;52.018;21.036;2022-11-24T14:35:26;99930.58;;;1.15;81.46
35507;BME280;36461;52.018;21.036;2022-11-24T14:37:55;99928.03;;;1.12;81.57
35507;BME280;36461;52.018;21.036;2022-11-24T14:40:37;99936.55;;;1.12;81.66
35507;BME280;36461;52.018;21.036;2022-11-24T14:43:15;99942.08;;;1.09;81.63
35507;BME280;36461;52.018;21.036;2022-11-24T14:46:02;99942.08;;;1.09;81.70
35507;BME280;36461;52.018;21.036;2022-11-24T14:48:35;99945.91;;;1.09;81.75
35507;BME280;36461;52.018;21.036;2022-11-24T14:53:42;99946.35;;;1.07;81.82
35507;BME280;36461;52.018;21.036;2022-11-24T14:58:48;99940.81;;;1.04;81.65
35507;BME280;36461;52.018;21.036;2022-11-24T15:04:14;99952.31;;;0.96;81.56
35507;BME280;36461;52.018;21.036;2022-11-24T15:07:00;99950.19;;;0.96;81.65
35507;BME280;36461;52.018;21.036;2022-11-24T15:09:50;99953.58;;;0.98;81.80
35507;BME280;36461;52.018;21.036;2022-11-24T15:12:30;99954.86;;;0.98;81.71
35507;BME280;36461;52.018;21.036;2022-11-24T15:15:16;99958.69;;;0.98;81.83
35507;BME280;36461;52.018;21.036;2022-11-24T15:17:49;99965.10;;;1.03;82.02
35507;BME280;36461;52.018;21.036;2022-11-24T15:20:33;99966.78;;;1.02;81.88
35507;BME280;36461;52.018;21.036;2022-11-24T15:25:45;99976.61;;;0.99;81.76
35507;BME280;36461;52.018;21.036;2022-11-24T15:28:11;99975.34;;;0.99;81.85
35507;BME280;36461;52.018;21.036;2022-11-24T15:30:38;99990.64;;;0.98;81.84
35507;BME280;36461;52.018;21.036;2022-11-24T15:33:16;99993.64;;;0.96;81.84